Buckley Air Force Base
KBKF : rendu visible

Aérodrome :











RETROUVEZ-NOUS SUR...

 
LOGIN :

S'inscrire | Disclaimer

   EN    FR    IT 

 









Légende :    VFR   VFR Marginal   IFR   IFR Intensif   IFR Très Intensif
Visi : 
Plafond : 
>= 8 km
>= 3000ft
5 à 8 km
1000 à 3000 ft
1500m à 5 km
500 à 1000 ft
800 à 1500m
200 à 500 ft
< 800m
< 200 ft
Symboles :   Orages  Brouillard  Fortes neiges  Fortes précipitations  Vent > 20 kt






- Altitude de l'aérodrome : 5662 ft


KBKF - Buckley Air Force Base

DERNIER METAR :
  • 230058Z 15012KT 10SM OVC180 06/M04 A2998 RMK AO2A SLP139 T00571039

METARs EXPIRÉS :
  • 222358Z 13011KT 10SM FEW080 BKN180 06/M02 A2997 RMK AO2A SLP136 T00581021 10125 20058 57004
  • 222258Z 14014KT 10SM FEW100 BKN200 08/M03 A2997 RMK AO2A SLP136 T00831032

TAF TAF KBKF
Valide du 23 à 01h jusqu'au 24 à 07h UTC


230107Z 2301/2407 VRB06KT 9999 BKN090 QNH2993INS
BECMG 2304/2305 VRB06KT 9999 BKN090 QNH2996INS
TEMPO 2305/2310 4800 BR BKN060 OVC100 620607
BECMG 2311/2312 VRB06KT 9999 BKN080 QNH2998INS
TEMPO 2313/2315 BKN020 620208
BECMG 2316/2317 01012KT 4800 -RA SCT050 BKN080 650804 QNH2997INS
TEMPO 2317/2322 3200 -SN 660804
BECMG 2322/2323 VRB06KT 9999 NSW BKN080 QNH2998INS
BECMG 2405/2406 VRB06KT 9999 SKC QNH2991INS TX04/2308Z TNM02/2314Z



MET'MAP, la Météo Aéronautique d'un coup d'oeil ! - Copyright ORBIFLY Décembre 2007 - Disclaimer

ORBIFLY MET'MAP TEAM :

Programmation & Développement : Alexandra Zaïnal
Sur une idée originale de : Baudouin d'Aumeries
Assistance à la programmation : Marc-Olivier Méhu
Soutien technique & logistique : Manuel Goepfert

Contact : metmap@orbifly.com




SOURCES & CREDITS :

   NOAA       Earth
Advisory